sensor_id;sensor_type;location;lat;lon;timestamp;temperature;humidity
20319;DHT22;10317;47.254;11.314;2023-07-29T00:01:35;16.50;99.90
20319;DHT22;10317;47.254;11.314;2023-07-29T00:04:01;16.50;99.90
20319;DHT22;10317;47.254;11.314;2023-07-29T00:06:27;16.50;99.90
20319;DHT22;10317;47.254;11.314;2023-07-29T00:08:53;16.50;99.90
20319;DHT22;10317;47.254;11.314;2023-07-29T00:11:19;16.50;99.90
20319;DHT22;10317;47.254;11.314;2023-07-29T00:13:44;16.50;99.90
20319;DHT22;10317;47.254;11.314;2023-07-29T00:16:10;16.40;99.90
20319;DHT22;10317;47.254;11.314;2023-07-29T00:18:36;16.40;99.90
20319;DHT22;10317;47.254;11.314;2023-07-29T00:21:01;16.40;99.90
20319;DHT22;10317;47.254;11.314;2023-07-29T00:23:27;16.40;99.90
20319;DHT22;10317;47.254;11.314;2023-07-29T00:25:53;16.40;99.90
20319;DHT22;10317;47.254;11.314;2023-07-29T00:28:19;16.40;99.90
20319;DHT22;10317;47.254;11.314;2023-07-29T00:30:44;16.40;99.90
20319;DHT22;10317;47.254;11.314;2023-07-29T00:33:10;16.40;99.90
20319;DHT22;10317;47.254;11.314;2023-07-29T00:35:35;16.40;99.90
20319;DHT22;10317;47.254;11.314;2023-07-29T00:38:01;16.40;99.90
20319;DHT22;10317;47.254;11.314;2023-07-29T00:40:28;16.40;99.90
20319;DHT22;10317;47.254;11.314;2023-07-29T00:42:55;16.30;99.90
20319;DHT22;10317;47.254;11.314;2023-07-29T00:45:20;16.30;99.90
20319;DHT22;10317;47.254;11.314;2023-07-29T00:47:47;16.30;99.90
20319;DHT22;10317;47.254;11.314;2023-07-29T00:50:14;16.40;99.90
20319;DHT22;10317;47.254;11.314;2023-07-29T00:52:40;16.30;99.90
20319;DHT22;10317;47.254;11.314;2023-07-29T00:55:07;16.40;99.90
20319;DHT22;10317;47.254;11.314;2023-07-29T00:57:33;16.30;99.90
20319;DHT22;10317;47.254;11.314;2023-07-29T00:59:59;16.40;99.90
20319;DHT22;10317;47.254;11.314;2023-07-29T01:02:26;16.30;99.90
20319;DHT22;10317;47.254;11.314;2023-07-29T01:04:54;16.30;99.90
20319;DHT22;10317;47.254;11.314;2023-07-29T01:12:54;16.30;99.90
20319;DHT22;10317;47.254;11.314;2023-07-29T01:18:23;16.20;99.90
20319;DHT22;10317;47.254;11.314;2023-07-29T01:20:54;16.20;99.90
20319;DHT22;10317;47.254;11.314;2023-07-29T01:23:25;16.20;99.90
20319;DHT22;10317;47.254;11.314;2023-07-29T01:25:51;16.20;99.90
20319;DHT22;10317;47.254;11.314;2023-07-29T01:28:16;16.10;99.90
20319;DHT22;10317;47.254;11.314;2023-07-29T01:30:43;16.10;99.90
20319;DHT22;10317;47.254;11.314;2023-07-29T01:33:17;16.10;99.90
20319;DHT22;10317;47.254;11.314;2023-07-29T01:35:58;16.20;99.90
20319;DHT22;10317;47.254;11.314;2023-07-29T01:38:33;16.10;99.90
20319;DHT22;10317;47.254;11.314;2023-07-29T01:41:06;16.10;99.90
20319;DHT22;10317;47.254;11.314;2023-07-29T01:43:33;16.10;99.90
20319;DHT22;10317;47.254;11.314;2023-07-29T01:46:00;16.10;99.90
20319;DHT22;10317;47.254;11.314;2023-07-29T01:48:26;16.10;99.90
20319;DHT22;10317;47.254;11.314;2023-07-29T01:50:54;16.10;99.90
20319;DHT22;10317;47.254;11.314;2023-07-29T01:53:19;16.00;99.90
20319;DHT22;10317;47.254;11.314;2023-07-29T01:55:45;16.00;99.90
20319;DHT22;10317;47.254;11.314;2023-07-29T01:58:11;16.00;99.90
20319;DHT22;10317;47.254;11.314;2023-07-29T02:00:37;15.90;99.90
20319;DHT22;10317;47.254;11.314;2023-07-29T02:03:03;15.90;99.90
20319;DHT22;10317;47.254;11.314;2023-07-29T02:05:28;15.80;99.90
20319;DHT22;10317;47.254;11.314;2023-07-29T02:07:54;15.80;99.90
20319;DHT22;10317;47.254;11.314;2023-07-29T02:10:20;15.80;99.90
20319;DHT22;10317;47.254;11.314;2023-07-29T02:12:45;15.80;99.90
20319;DHT22;10317;47.254;11.314;2023-07-29T02:15:11;15.80;99.90
20319;DHT22;10317;47.254;11.314;2023-07-29T02:17:37;15.70;99.90
20319;DHT22;10317;47.254;11.314;2023-07-29T02:20:03;15.70;99.90
20319;DHT22;10317;47.254;11.314;2023-07-29T02:22:29;15.80;99.90
20319;DHT22;10317;47.254;11.314;2023-07-29T02:24:55;15.80;99.90
20319;DHT22;10317;47.254;11.314;2023-07-29T02:27:21;15.80;99.90
20319;DHT22;10317;47.254;11.314;2023-07-29T02:29:46;15.70;99.90
20319;DHT22;10317;47.254;11.314;2023-07-29T02:32:12;15.70;99.90
20319;DHT22;10317;47.254;11.314;2023-07-29T02:34:38;15.70;99.90
20319;DHT22;10317;47.254;11.314;2023-07-29T02:37:04;15.70;99.90
20319;DHT22;10317;47.254;11.314;2023-07-29T02:39:30;15.70;99.90
20319;DHT22;10317;47.254;11.314;2023-07-29T02:41:56;15.70;99.90
20319;DHT22;10317;47.254;11.314;2023-07-29T02:44:23;15.70;99.90
20319;DHT22;10317;47.254;11.314;2023-07-29T02:46:49;15.70;99.90
20319;DHT22;10317;47.254;11.314;2023-07-29T02:49:15;15.70;99.90
20319;DHT22;10317;47.254;11.314;2023-07-29T02:51:40;15.70;99.90
20319;DHT22;10317;47.254;11.314;2023-07-29T02:54:06;15.70;99.90
20319;DHT22;10317;47.254;11.314;2023-07-29T02:56:32;15.80;99.90
20319;DHT22;10317;47.254;11.314;2023-07-29T02:58:57;15.80;99.90
20319;DHT22;10317;47.254;11.314;2023-07-29T03:01:23;15.70;99.90
20319;DHT22;10317;47.254;11.314;2023-07-29T03:03:50;15.70;99.90
20319;DHT22;10317;47.254;11.314;2023-07-29T03:06:16;15.70;99.90
20319;DHT22;10317;47.254;11.314;2023-07-29T03:08:42;15.70;99.90
20319;DHT22;10317;47.254;11.314;2023-07-29T03:11:12;15.70;99.90
20319;DHT22;10317;47.254;11.314;2023-07-29T03:13:38;15.80;99.90
20319;DHT22;10317;47.254;11.314;2023-07-29T03:16:07;15.80;99.90
20319;DHT22;10317;47.254;11.314;2023-07-29T03:18:33;15.80;99.90
20319;DHT22;10317;47.254;11.314;2023-07-29T03:20:59;15.80;99.90
20319;DHT22;10317;47.254;11.314;2023-07-29T03:23:25;15.80;99.90
20319;DHT22;10317;47.254;11.314;2023-07-29T03:25:50;15.80;99.90
20319;DHT22;10317;47.254;11.314;2023-07-29T03:28:25;15.80;99.90
20319;DHT22;10317;47.254;11.314;2023-07-29T03:30:53;15.80;99.90
20319;DHT22;10317;47.254;11.314;2023-07-29T03:33:18;15.80;99.90
20319;DHT22;10317;47.254;11.314;2023-07-29T03:35:44;15.80;99.90
20319;DHT22;10317;47.254;11.314;2023-07-29T03:38:11;15.80;99.90
20319;DHT22;10317;47.254;11.314;2023-07-29T03:40:37;15.80;99.90
20319;DHT22;10317;47.254;11.314;2023-07-29T03:43:04;15.80;99.90
20319;DHT22;10317;47.254;11.314;2023-07-29T03:45:29;15.80;99.90
20319;DHT22;10317;47.254;11.314;2023-07-29T03:47:55;15.80;99.90
20319;DHT22;10317;47.254;11.314;2023-07-29T03:50:21;15.70;99.90
20319;DHT22;10317;47.254;11.314;2023-07-29T03:52:46;15.70;99.90
20319;DHT22;10317;47.254;11.314;2023-07-29T03:55:12;15.80;99.90
20319;DHT22;10317;47.254;11.314;2023-07-29T03:57:38;15.80;99.90
20319;DHT22;10317;47.254;11.314;2023-07-29T04:00:04;15.80;99.90
20319;DHT22;10317;47.254;11.314;2023-07-29T04:02:30;15.80;99.90
20319;DHT22;10317;47.254;11.314;2023-07-29T04:04:55;15.80;99.90
20319;DHT22;10317;47.254;11.314;2023-07-29T04:07:21;15.80;99.90
20319;DHT22;10317;47.254;11.314;2023-07-29T04:09:47;15.80;99.90
20319;DHT22;10317;47.254;11.314;2023-07-29T04:12:13;15.80;99.90
20319;DHT22;10317;47.254;11.314;2023-07-29T04:14:38;15.90;99.90
20319;DHT22;10317;47.254;11.314;2023-07-29T04:17:04;15.90;99.90
20319;DHT22;10317;47.254;11.314;2023-07-29T04:19:30;15.90;99.90
20319;DHT22;10317;47.254;11.314;2023-07-29T04:21:55;15.90;99.90
20319;DHT22;10317;47.254;11.314;2023-07-29T04:24:21;15.80;99.90
20319;DHT22;10317;47.254;11.314;2023-07-29T04:26:49;15.90;99.90
20319;DHT22;10317;47.254;11.314;2023-07-29T04:29:14;15.90;99.90
20319;DHT22;10317;47.254;11.314;2023-07-29T04:31:40;15.90;99.90
20319;DHT22;10317;47.254;11.314;2023-07-29T04:34:06;15.90;99.90
20319;DHT22;10317;47.254;11.314;2023-07-29T04:36:31;16.00;99.90
20319;DHT22;10317;47.254;11.314;2023-07-29T04:38:58;16.00;99.90
20319;DHT22;10317;47.254;11.314;2023-07-29T04:41:23;16.00;99.90
20319;DHT22;10317;47.254;11.314;2023-07-29T04:43:49;16.00;99.90
20319;DHT22;10317;47.254;11.314;2023-07-29T04:46:15;16.00;99.90
20319;DHT22;10317;47.254;11.314;2023-07-29T04:48:41;16.00;99.90
20319;DHT22;10317;47.254;11.314;2023-07-29T04:51:06;16.00;99.90
20319;DHT22;10317;47.254;11.314;2023-07-29T04:53:32;16.10;99.90
20319;DHT22;10317;47.254;11.314;2023-07-29T04:56:00;16.20;99.90
20319;DHT22;10317;47.254;11.314;2023-07-29T04:58:26;16.20;99.90
20319;DHT22;10317;47.254;11.314;2023-07-29T05:00:54;16.20;99.90
20319;DHT22;10317;47.254;11.314;2023-07-29T05:03:20;16.20;99.90
20319;DHT22;10317;47.254;11.314;2023-07-29T05:05:45;16.20;99.90
20319;DHT22;10317;47.254;11.314;2023-07-29T05:08:11;16.20;99.90
20319;DHT22;10317;47.254;11.314;2023-07-29T05:10:36;16.20;99.90
20319;DHT22;10317;47.254;11.314;2023-07-29T05:13:02;16.20;99.90
20319;DHT22;10317;47.254;11.314;2023-07-29T05:15:28;16.20;99.90
20319;DHT22;10317;47.254;11.314;2023-07-29T05:17:53;16.20;99.90
20319;DHT22;10317;47.254;11.314;2023-07-29T05:20:19;16.30;99.90
20319;DHT22;10317;47.254;11.314;2023-07-29T05:22:45;16.40;99.90
20319;DHT22;10317;47.254;11.314;2023-07-29T05:25:10;16.40;99.90
20319;DHT22;10317;47.254;11.314;2023-07-29T05:27:36;16.50;99.90
20319;DHT22;10317;47.254;11.314;2023-07-29T05:30:02;16.50;99.90
20319;DHT22;10317;47.254;11.314;2023-07-29T05:32:27;16.70;99.90
20319;DHT22;10317;47.254;11.314;2023-07-29T05:34:53;16.90;99.90
20319;DHT22;10317;47.254;11.314;2023-07-29T05:37:19;17.20;99.90
20319;DHT22;10317;47.254;11.314;2023-07-29T05:39:44;17.50;99.90
20319;DHT22;10317;47.254;11.314;2023-07-29T05:42:10;17.60;99.90
20319;DHT22;10317;47.254;11.314;2023-07-29T05:44:36;17.70;99.90
20319;DHT22;10317;47.254;11.314;2023-07-29T05:47:01;17.70;99.90
20319;DHT22;10317;47.254;11.314;2023-07-29T05:49:28;17.70;99.90
20319;DHT22;10317;47.254;11.314;2023-07-29T05:51:53;17.70;99.90
20319;DHT22;10317;47.254;11.314;2023-07-29T05:54:19;17.80;99.90
20319;DHT22;10317;47.254;11.314;2023-07-29T05:56:45;17.70;99.90
20319;DHT22;10317;47.254;11.314;2023-07-29T05:59:10;17.70;99.90
20319;DHT22;10317;47.254;11.314;2023-07-29T06:01:36;17.60;99.90
20319;DHT22;10317;47.254;11.314;2023-07-29T06:04:02;17.50;99.90
20319;DHT22;10317;47.254;11.314;2023-07-29T06:06:28;17.40;99.90
20319;DHT22;10317;47.254;11.314;2023-07-29T06:08:53;17.40;99.90
20319;DHT22;10317;47.254;11.314;2023-07-29T06:11:19;17.40;99.90
20319;DHT22;10317;47.254;11.314;2023-07-29T06:13:47;17.30;99.90
20319;DHT22;10317;47.254;11.314;2023-07-29T06:16:12;17.40;99.90
20319;DHT22;10317;47.254;11.314;2023-07-29T06:18:38;17.40;99.90
20319;DHT22;10317;47.254;11.314;2023-07-29T06:21:04;17.60;99.90
20319;DHT22;10317;47.254;11.314;2023-07-29T06:23:33;17.80;99.90
20319;DHT22;10317;47.254;11.314;2023-07-29T06:25:59;18.00;99.90
20319;DHT22;10317;47.254;11.314;2023-07-29T06:28:26;18.30;99.90
20319;DHT22;10317;47.254;11.314;2023-07-29T06:30:52;18.80;99.90
20319;DHT22;10317;47.254;11.314;2023-07-29T06:33:18;19.20;99.90
20319;DHT22;10317;47.254;11.314;2023-07-29T06:35:44;19.30;99.90
20319;DHT22;10317;47.254;11.314;2023-07-29T06:38:09;19.10;99.90
20319;DHT22;10317;47.254;11.314;2023-07-29T06:40:35;18.80;99.90
20319;DHT22;10317;47.254;11.314;2023-07-29T06:43:01;18.60;99.90
20319;DHT22;10317;47.254;11.314;2023-07-29T06:45:26;18.50;99.90
20319;DHT22;10317;47.254;11.314;2023-07-29T06:47:52;18.40;99.90
20319;DHT22;10317;47.254;11.314;2023-07-29T06:50:18;18.20;99.90
20319;DHT22;10317;47.254;11.314;2023-07-29T06:52:44;18.20;99.90
20319;DHT22;10317;47.254;11.314;2023-07-29T06:55:10;18.10;99.90
20319;DHT22;10317;47.254;11.314;2023-07-29T06:57:36;18.00;99.90
20319;DHT22;10317;47.254;11.314;2023-07-29T07:00:02;17.90;99.90
20319;DHT22;10317;47.254;11.314;2023-07-29T07:02:28;17.80;99.90
20319;DHT22;10317;47.254;11.314;2023-07-29T07:04:54;17.80;99.90
20319;DHT22;10317;47.254;11.314;2023-07-29T07:07:20;17.80;99.90
20319;DHT22;10317;47.254;11.314;2023-07-29T07:09:45;17.90;99.90
20319;DHT22;10317;47.254;11.314;2023-07-29T07:12:11;17.90;99.90
20319;DHT22;10317;47.254;11.314;2023-07-29T07:14:37;18.00;99.90
20319;DHT22;10317;47.254;11.314;2023-07-29T07:17:03;18.10;99.90
20319;DHT22;10317;47.254;11.314;2023-07-29T07:19:29;18.20;99.90
20319;DHT22;10317;47.254;11.314;2023-07-29T07:21:54;18.30;99.90
20319;DHT22;10317;47.254;11.314;2023-07-29T07:24:20;18.40;99.90
20319;DHT22;10317;47.254;11.314;2023-07-29T07:26:46;19.30;99.90
20319;DHT22;10317;47.254;11.314;2023-07-29T07:29:11;20.00;99.90
20319;DHT22;10317;47.254;11.314;2023-07-29T07:31:37;20.90;99.90
20319;DHT22;10317;47.254;11.314;2023-07-29T07:34:03;21.80;99.90
20319;DHT22;10317;47.254;11.314;2023-07-29T07:36:29;21.90;99.90
20319;DHT22;10317;47.254;11.314;2023-07-29T07:38:55;21.40;99.90
20319;DHT22;10317;47.254;11.314;2023-07-29T07:41:21;20.90;99.90
20319;DHT22;10317;47.254;11.314;2023-07-29T07:43:46;20.50;99.90
20319;DHT22;10317;47.254;11.314;2023-07-29T07:46:12;20.30;99.90
20319;DHT22;10317;47.254;11.314;2023-07-29T07:48:38;20.10;99.90
20319;DHT22;10317;47.254;11.314;2023-07-29T07:51:11;20.20;99.90
20319;DHT22;10317;47.254;11.314;2023-07-29T07:53:37;20.30;99.90
20319;DHT22;10317;47.254;11.314;2023-07-29T07:56:03;20.40;99.90
20319;DHT22;10317;47.254;11.314;2023-07-29T07:58:28;20.50;99.90
20319;DHT22;10317;47.254;11.314;2023-07-29T08:01:04;20.60;99.90
20319;DHT22;10317;47.254;11.314;2023-07-29T08:03:30;20.60;99.90
20319;DHT22;10317;47.254;11.314;2023-07-29T08:05:55;21.20;99.90
20319;DHT22;10317;47.254;11.314;2023-07-29T08:08:21;21.80;99.90
20319;DHT22;10317;47.254;11.314;2023-07-29T08:10:47;21.80;99.90
20319;DHT22;10317;47.254;11.314;2023-07-29T08:13:12;21.90;99.90
20319;DHT22;10317;47.254;11.314;2023-07-29T08:15:38;22.10;99.90
20319;DHT22;10317;47.254;11.314;2023-07-29T08:18:04;22.20;99.90
20319;DHT22;10317;47.254;11.314;2023-07-29T08:20:29;21.70;99.90
20319;DHT22;10317;47.254;11.314;2023-07-29T08:22:55;21.50;99.90
20319;DHT22;10317;47.254;11.314;2023-07-29T08:25:21;21.50;99.90
20319;DHT22;10317;47.254;11.314;2023-07-29T08:27:46;21.30;99.90
20319;DHT22;10317;47.254;11.314;2023-07-29T08:30:12;21.20;99.90
20319;DHT22;10317;47.254;11.314;2023-07-29T08:32:37;20.90;99.90
20319;DHT22;10317;47.254;11.314;2023-07-29T08:35:03;20.90;99.90
20319;DHT22;10317;47.254;11.314;2023-07-29T08:37:29;20.70;99.90
20319;DHT22;10317;47.254;11.314;2023-07-29T08:39:56;20.70;99.90
20319;DHT22;10317;47.254;11.314;2023-07-29T08:42:23;20.80;99.90
20319;DHT22;10317;47.254;11.314;2023-07-29T08:44:54;20.80;99.90
20319;DHT22;10317;47.254;11.314;2023-07-29T08:47:20;20.90;99.90
20319;DHT22;10317;47.254;11.314;2023-07-29T08:49:47;21.10;99.90
20319;DHT22;10317;47.254;11.314;2023-07-29T08:52:14;21.10;99.90
20319;DHT22;10317;47.254;11.314;2023-07-29T08:54:40;20.90;99.90
20319;DHT22;10317;47.254;11.314;2023-07-29T08:57:06;20.90;99.90
20319;DHT22;10317;47.254;11.314;2023-07-29T08:59:33;21.40;99.90
20319;DHT22;10317;47.254;11.314;2023-07-29T09:01:58;21.50;99.90
20319;DHT22;10317;47.254;11.314;2023-07-29T09:04:24;22.00;99.90
20319;DHT22;10317;47.254;11.314;2023-07-29T09:06:51;21.80;99.90
20319;DHT22;10317;47.254;11.314;2023-07-29T09:09:17;22.10;99.90
20319;DHT22;10317;47.254;11.314;2023-07-29T09:11:43;22.30;99.90
20319;DHT22;10317;47.254;11.314;2023-07-29T09:14:10;22.40;99.90
20319;DHT22;10317;47.254;11.314;2023-07-29T09:16:36;22.80;99.90
20319;DHT22;10317;47.254;11.314;2023-07-29T09:19:02;22.80;99.90
20319;DHT22;10317;47.254;11.314;2023-07-29T09:21:29;22.80;99.90
20319;DHT22;10317;47.254;11.314;2023-07-29T09:23:55;22.80;99.90
20319;DHT22;10317;47.254;11.314;2023-07-29T09:26:28;22.80;99.90
20319;DHT22;10317;47.254;11.314;2023-07-29T09:28:58;23.20;99.90
20319;DHT22;10317;47.254;11.314;2023-07-29T09:31:26;24.00;99.90
20319;DHT22;10317;47.254;11.314;2023-07-29T09:33:59;24.00;99.90
20319;DHT22;10317;47.254;11.314;2023-07-29T09:36:26;24.40;99.90
20319;DHT22;10317;47.254;11.314;2023-07-29T09:38:56;24.20;99.90
20319;DHT22;10317;47.254;11.314;2023-07-29T09:41:29;24.10;99.50
20319;DHT22;10317;47.254;11.314;2023-07-29T09:43:57;24.40;99.90
20319;DHT22;10317;47.254;11.314;2023-07-29T09:46:26;24.50;99.90
20319;DHT22;10317;47.254;11.314;2023-07-29T09:48:57;24.70;99.90
20319;DHT22;10317;47.254;11.314;2023-07-29T09:51:23;24.80;99.80
20319;DHT22;10317;47.254;11.314;2023-07-29T09:53:50;25.10;99.90
20319;DHT22;10317;47.254;11.314;2023-07-29T09:56:17;24.90;99.90
20319;DHT22;10317;47.254;11.314;2023-07-29T09:58:45;25.20;99.90
20319;DHT22;10317;47.254;11.314;2023-07-29T10:01:11;25.30;99.90
20319;DHT22;10317;47.254;11.314;2023-07-29T10:03:37;25.30;98.70
20319;DHT22;10317;47.254;11.314;2023-07-29T10:06:04;25.40;98.10
20319;DHT22;10317;47.254;11.314;2023-07-29T10:08:31;25.30;99.90
20319;DHT22;10317;47.254;11.314;2023-07-29T10:11:01;25.40;99.90
20319;DHT22;10317;47.254;11.314;2023-07-29T10:13:27;25.30;99.90
20319;DHT22;10317;47.254;11.314;2023-07-29T10:15:57;25.20;99.90
20319;DHT22;10317;47.254;11.314;2023-07-29T10:18:24;25.30;98.70
20319;DHT22;10317;47.254;11.314;2023-07-29T10:20:51;25.50;97.70
20319;DHT22;10317;47.254;11.314;2023-07-29T10:23:18;25.40;97.10
20319;DHT22;10317;47.254;11.314;2023-07-29T10:26:05;25.30;97.00
20319;DHT22;10317;47.254;11.314;2023-07-29T10:28:32;25.50;97.50
20319;DHT22;10317;47.254;11.314;2023-07-29T10:31:00;25.70;98.30
20319;DHT22;10317;47.254;11.314;2023-07-29T10:33:26;25.80;99.10
20319;DHT22;10317;47.254;11.314;2023-07-29T10:35:53;25.90;97.80
20319;DHT22;10317;47.254;11.314;2023-07-29T10:38:23;26.00;98.70
20319;DHT22;10317;47.254;11.314;2023-07-29T10:40:55;26.10;96.30
20319;DHT22;10317;47.254;11.314;2023-07-29T10:43:36;26.30;95.90
20319;DHT22;10317;47.254;11.314;2023-07-29T10:46:22;26.30;95.40
20319;DHT22;10317;47.254;11.314;2023-07-29T10:48:53;25.90;95.00
20319;DHT22;10317;47.254;11.314;2023-07-29T10:54:01;25.70;94.90
20319;DHT22;10317;47.254;11.314;2023-07-29T10:56:34;25.80;95.00
20319;DHT22;10317;47.254;11.314;2023-07-29T11:01:53;26.50;92.00
20319;DHT22;10317;47.254;11.314;2023-07-29T11:15:11;27.30;90.60
20319;DHT22;10317;47.254;11.314;2023-07-29T11:17:52;27.20;91.10
20319;DHT22;10317;47.254;11.314;2023-07-29T11:20:26;27.00;91.00
20319;DHT22;10317;47.254;11.314;2023-07-29T11:22:53;26.70;90.50
20319;DHT22;10317;47.254;11.314;2023-07-29T11:25:20;26.70;90.00
20319;DHT22;10317;47.254;11.314;2023-07-29T11:27:46;26.80;91.70
20319;DHT22;10317;47.254;11.314;2023-07-29T11:30:13;26.60;89.20
20319;DHT22;10317;47.254;11.314;2023-07-29T11:32:41;26.60;91.10
20319;DHT22;10317;47.254;11.314;2023-07-29T11:35:09;26.40;86.00
20319;DHT22;10317;47.254;11.314;2023-07-29T11:37:37;26.40;91.20
20319;DHT22;10317;47.254;11.314;2023-07-29T11:40:03;26.50;91.80
20319;DHT22;10317;47.254;11.314;2023-07-29T11:42:32;26.90;86.70
20319;DHT22;10317;47.254;11.314;2023-07-29T11:44:59;27.10;86.50
20319;DHT22;10317;47.254;11.314;2023-07-29T11:47:24;27.30;85.00
20319;DHT22;10317;47.254;11.314;2023-07-29T11:49:50;27.30;86.40
20319;DHT22;10317;47.254;11.314;2023-07-29T11:52:16;27.30;88.20
20319;DHT22;10317;47.254;11.314;2023-07-29T11:54:46;27.40;88.80
20319;DHT22;10317;47.254;11.314;2023-07-29T11:57:12;27.30;91.30
20319;DHT22;10317;47.254;11.314;2023-07-29T11:59:39;27.20;89.00
20319;DHT22;10317;47.254;11.314;2023-07-29T12:02:11;27.10;91.50
20319;DHT22;10317;47.254;11.314;2023-07-29T12:04:38;27.10;92.60
20319;DHT22;10317;47.254;11.314;2023-07-29T12:07:05;27.00;90.20
20319;DHT22;10317;47.254;11.314;2023-07-29T12:09:31;26.90;93.60
20319;DHT22;10317;47.254;11.314;2023-07-29T12:11:57;26.80;92.70
20319;DHT22;10317;47.254;11.314;2023-07-29T12:14:26;26.80;92.50
20319;DHT22;10317;47.254;11.314;2023-07-29T12:16:52;26.90;93.10
20319;DHT22;10317;47.254;11.314;2023-07-29T12:19:19;26.80;92.50
20319;DHT22;10317;47.254;11.314;2023-07-29T12:21:44;26.70;92.70
20319;DHT22;10317;47.254;11.314;2023-07-29T12:24:13;26.60;94.70
20319;DHT22;10317;47.254;11.314;2023-07-29T12:26:41;26.70;94.40
20319;DHT22;10317;47.254;11.314;2023-07-29T12:29:18;26.70;93.90
20319;DHT22;10317;47.254;11.314;2023-07-29T12:31:45;26.60;93.00
20319;DHT22;10317;47.254;11.314;2023-07-29T12:34:21;26.50;93.40
20319;DHT22;10317;47.254;11.314;2023-07-29T12:36:48;26.30;95.00
20319;DHT22;10317;47.254;11.314;2023-07-29T12:41:43;26.10;97.50
20319;DHT22;10317;47.254;11.314;2023-07-29T12:44:08;26.10;97.30
20319;DHT22;10317;47.254;11.314;2023-07-29T12:46:34;26.30;98.10
20319;DHT22;10317;47.254;11.314;2023-07-29T12:48:59;26.40;98.30
20319;DHT22;10317;47.254;11.314;2023-07-29T12:51:25;26.40;94.90
20319;DHT22;10317;47.254;11.314;2023-07-29T12:53:51;26.20;93.00
20319;DHT22;10317;47.254;11.314;2023-07-29T12:56:16;26.40;92.30
20319;DHT22;10317;47.254;11.314;2023-07-29T12:58:42;26.70;92.70
20319;DHT22;10317;47.254;11.314;2023-07-29T13:01:08;26.80;93.40
20319;DHT22;10317;47.254;11.314;2023-07-29T13:03:34;26.90;91.40
20319;DHT22;10317;47.254;11.314;2023-07-29T13:06:00;27.00;91.00
20319;DHT22;10317;47.254;11.314;2023-07-29T13:08:26;27.00;90.10
20319;DHT22;10317;47.254;11.314;2023-07-29T13:10:52;26.90;91.60
20319;DHT22;10317;47.254;11.314;2023-07-29T13:13:18;26.80;92.00
20319;DHT22;10317;47.254;11.314;2023-07-29T13:15:43;26.60;92.00
20319;DHT22;10317;47.254;11.314;2023-07-29T13:18:09;26.60;92.70
20319;DHT22;10317;47.254;11.314;2023-07-29T13:20:34;26.40;93.70
20319;DHT22;10317;47.254;11.314;2023-07-29T13:23:02;26.30;92.60
20319;DHT22;10317;47.254;11.314;2023-07-29T13:25:28;26.20;93.00
20319;DHT22;10317;47.254;11.314;2023-07-29T13:27:54;26.10;96.40
20319;DHT22;10317;47.254;11.314;2023-07-29T13:30:19;26.00;95.90
20319;DHT22;10317;47.254;11.314;2023-07-29T13:32:45;25.80;98.30
20319;DHT22;10317;47.254;11.314;2023-07-29T13:35:11;25.70;99.40
20319;DHT22;10317;47.254;11.314;2023-07-29T13:37:36;25.50;99.90
20319;DHT22;10317;47.254;11.314;2023-07-29T13:40:02;25.40;99.90
20319;DHT22;10317;47.254;11.314;2023-07-29T13:42:28;25.10;99.90
20319;DHT22;10317;47.254;11.314;2023-07-29T13:44:54;24.80;99.90
20319;DHT22;10317;47.254;11.314;2023-07-29T13:47:19;24.70;99.90
20319;DHT22;10317;47.254;11.314;2023-07-29T13:49:45;24.50;99.90
20319;DHT22;10317;47.254;11.314;2023-07-29T13:52:10;24.40;99.90
20319;DHT22;10317;47.254;11.314;2023-07-29T13:54:36;24.30;99.90
20319;DHT22;10317;47.254;11.314;2023-07-29T13:57:02;24.10;99.90
20319;DHT22;10317;47.254;11.314;2023-07-29T13:59:28;24.00;99.90
20319;DHT22;10317;47.254;11.314;2023-07-29T14:01:53;23.90;99.90
20319;DHT22;10317;47.254;11.314;2023-07-29T14:04:19;23.90;99.90
20319;DHT22;10317;47.254;11.314;2023-07-29T14:06:44;23.80;99.90
20319;DHT22;10317;47.254;11.314;2023-07-29T14:09:11;23.70;99.90
20319;DHT22;10317;47.254;11.314;2023-07-29T14:11:36;23.60;99.90
20319;DHT22;10317;47.254;11.314;2023-07-29T14:14:02;23.50;99.90
20319;DHT22;10317;47.254;11.314;2023-07-29T14:16:29;23.50;99.90
20319;DHT22;10317;47.254;11.314;2023-07-29T14:18:55;23.40;99.90
20319;DHT22;10317;47.254;11.314;2023-07-29T14:21:21;23.30;99.90
20319;DHT22;10317;47.254;11.314;2023-07-29T14:23:46;23.10;99.90
20319;DHT22;10317;47.254;11.314;2023-07-29T14:26:12;23.00;99.90
20319;DHT22;10317;47.254;11.314;2023-07-29T14:28:38;22.80;99.90
20319;DHT22;10317;47.254;11.314;2023-07-29T14:31:03;22.70;99.90
20319;DHT22;10317;47.254;11.314;2023-07-29T14:33:29;22.50;99.90
20319;DHT22;10317;47.254;11.314;2023-07-29T14:35:54;22.50;99.90
20319;DHT22;10317;47.254;11.314;2023-07-29T14:38:20;22.40;99.90
20319;DHT22;10317;47.254;11.314;2023-07-29T14:40:48;22.20;99.90
20319;DHT22;10317;47.254;11.314;2023-07-29T14:43:16;22.00;99.90
20319;DHT22;10317;47.254;11.314;2023-07-29T14:45:42;21.90;99.90
20319;DHT22;10317;47.254;11.314;2023-07-29T14:48:07;21.70;99.90
20319;DHT22;10317;47.254;11.314;2023-07-29T14:50:33;21.60;99.90
20319;DHT22;10317;47.254;11.314;2023-07-29T14:52:58;21.40;99.90
20319;DHT22;10317;47.254;11.314;2023-07-29T14:55:24;21.20;99.90
20319;DHT22;10317;47.254;11.314;2023-07-29T14:57:50;21.10;99.90
20319;DHT22;10317;47.254;11.314;2023-07-29T15:00:15;20.90;99.90
20319;DHT22;10317;47.254;11.314;2023-07-29T15:02:41;20.70;99.90
20319;DHT22;10317;47.254;11.314;2023-07-29T15:05:07;20.70;99.90
20319;DHT22;10317;47.254;11.314;2023-07-29T15:07:33;20.70;99.90
20319;DHT22;10317;47.254;11.314;2023-07-29T15:09:58;20.60;99.90
20319;DHT22;10317;47.254;11.314;2023-07-29T15:12:24;20.50;99.90
20319;DHT22;10317;47.254;11.314;2023-07-29T15:14:50;20.30;99.90
20319;DHT22;10317;47.254;11.314;2023-07-29T15:17:15;20.20;99.90
20319;DHT22;10317;47.254;11.314;2023-07-29T15:19:41;20.10;99.90
20319;DHT22;10317;47.254;11.314;2023-07-29T15:22:07;19.90;99.90
20319;DHT22;10317;47.254;11.314;2023-07-29T15:24:33;19.90;99.90
20319;DHT22;10317;47.254;11.314;2023-07-29T15:26:59;19.90;99.90
20319;DHT22;10317;47.254;11.314;2023-07-29T15:29:24;19.80;99.90
20319;DHT22;10317;47.254;11.314;2023-07-29T15:31:50;19.80;99.90
20319;DHT22;10317;47.254;11.314;2023-07-29T15:34:15;19.60;99.90
20319;DHT22;10317;47.254;11.314;2023-07-29T15:36:41;19.50;99.90
20319;DHT22;10317;47.254;11.314;2023-07-29T15:39:07;19.20;99.90